Albuquerque, NM

10:20 AM MST on December 10, 2016 (GMT -0700)
Alameda and the River | | Change Station

Elev 4999 ft 35.19 °N, 106.65 °W | Updated 1 minute ago

Clear
Clear
39.0 °F
Feels Like 39 °F
N
2.0
Wind Variable Wind from WSW
Gusts 4.0 mph

Today
High -- | Low -- °F
--% Chance of Precip.
Yesterday
High -- | Low -- °F
Precip. -- in
Pressure 30.26 in
Visibility 10.0 miles
Clouds Scattered Clouds 15000 ft
Windchill 39 °F
Dew Point 28 °F
Humidity 65%
Rainfall 0.00 in
Snow Depth Not available.
7:04 AM 4:54 PM
Waxing Gibbous, 85% visible
METAR KAEG 101648Z VRB06KT 10SM SCT150 04/M02 A3026
Pressure 30.26 in
Visibility 10.0 miles
Clouds Scattered Clouds 15000 ft
Windchill 39 °F
Dew Point 28 °F
Humidity 65%
Rainfall 0.00 in
Snow Depth Not available.
7:04 AM 4:54 PM
Waxing Gibbous, 85% visible
METAR KAEG 101648Z VRB06KT 10SM SCT150 04/M02 A3026

10-Day Weather Forecast

Almanac

Astronomy

Dec. 10, 2016 Rise Set
Actual Time
Civil Twilight
Nautical Twilight
Astronomical Twilight
Moon
Length of Visible Light
Length of Day
Tomorrow will be .
, % of the Moon is Illuminated

Today's Extremes

State Highs State Lows

Community

WunderPhotos

Upload Photos

1,956,588 photos uploaded!

WunderBlog® & News

Nearby

Air Quality

  Air Quality AQ Index Pollutant
Not available.

Snow Depth

Station Depth Elevation

Earthquake Activity

City Distance Mag. Time & Date
Minimum magnitude displayed is 2.5.

Coastal Water Temperatures

Place Temperature

Stations

Nearby Weather Stations

Station Location Temp. Windchill Dew Point Humidity Wind Precip. Elev Updated Type
                   

Watches & Warnings

There are currently no watches in effect.